Terminal Aerodrome Forecast
Issued by NWS

Home | Current Version | Previous Version | Text Only | Print | Product List | Glossary On
Versions: 1 2 3 4 5 6 7 8 9 10 11 12
000
FTUS46 KPDT 300500
TAFYKM
TAF
KYKM 300520Z 3006/3106 31006KT P6SM SCT150
     FM301100 28006KT P6SM SCT150
     FM301700 VRB06KT P6SM SCT150
     FM302300 32010KT P6SM SCT120=

USA.gov is the U.S. government's official web portal to all federal, state and local government web resources and services.